sensor_id;sensor_type;location;lat;lon;timestamp;P1;durP1;ratioP1;P2;durP2;ratioP2
40729;SDS011;26418;50.070;8.436;2024-02-21T00:01:04;15.23;;;5.05;;
40729;SDS011;26418;50.070;8.436;2024-02-21T00:03:33;13.93;;;4.47;;
40729;SDS011;26418;50.070;8.436;2024-02-21T00:05:58;21.17;;;5.82;;
40729;SDS011;26418;50.070;8.436;2024-02-21T00:08:24;13.48;;;5.18;;
40729;SDS011;26418;50.070;8.436;2024-02-21T00:10:50;19.75;;;6.90;;
40729;SDS011;26418;50.070;8.436;2024-02-21T00:13:15;11.23;;;4.40;;
40729;SDS011;26418;50.070;8.436;2024-02-21T00:15:44;16.40;;;6.00;;
40729;SDS011;26418;50.070;8.436;2024-02-21T00:18:09;13.13;;;5.22;;
40729;SDS011;26418;50.070;8.436;2024-02-21T00:20:36;15.85;;;5.22;;
40729;SDS011;26418;50.070;8.436;2024-02-21T00:23:01;13.52;;;5.18;;
40729;SDS011;26418;50.070;8.436;2024-02-21T00:25:27;17.60;;;6.00;;
40729;SDS011;26418;50.070;8.436;2024-02-21T00:27:56;14.35;;;5.60;;
40729;SDS011;26418;50.070;8.436;2024-02-21T00:30:24;16.70;;;6.43;;
40729;SDS011;26418;50.070;8.436;2024-02-21T00:32:50;14.25;;;5.70;;
40729;SDS011;26418;50.070;8.436;2024-02-21T00:35:15;13.93;;;5.65;;
40729;SDS011;26418;50.070;8.436;2024-02-21T00:37:41;14.30;;;5.15;;
40729;SDS011;26418;50.070;8.436;2024-02-21T00:40:07;15.15;;;4.75;;
40729;SDS011;26418;50.070;8.436;2024-02-21T00:42:35;10.52;;;4.53;;
40729;SDS011;26418;50.070;8.436;2024-02-21T00:45:01;19.10;;;5.82;;
40729;SDS011;26418;50.070;8.436;2024-02-21T00:47:27;15.07;;;5.85;;
40729;SDS011;26418;50.070;8.436;2024-02-21T00:49:52;14.52;;;5.70;;
40729;SDS011;26418;50.070;8.436;2024-02-21T00:52:21;16.60;;;5.60;;
40729;SDS011;26418;50.070;8.436;2024-02-21T00:54:46;14.63;;;5.70;;
40729;SDS011;26418;50.070;8.436;2024-02-21T00:57:14;20.23;;;6.75;;
40729;SDS011;26418;50.070;8.436;2024-02-21T00:59:43;16.92;;;6.30;;
40729;SDS011;26418;50.070;8.436;2024-02-21T01:02:11;20.00;;;6.32;;
40729;SDS011;26418;50.070;8.436;2024-02-21T01:04:37;18.00;;;6.00;;
40729;SDS011;26418;50.070;8.436;2024-02-21T01:07:05;16.25;;;6.70;;
40729;SDS011;26418;50.070;8.436;2024-02-21T01:09:31;15.00;;;6.25;;
40729;SDS011;26418;50.070;8.436;2024-02-21T01:11:59;14.23;;;6.38;;
40729;SDS011;26418;50.070;8.436;2024-02-21T01:14:25;17.63;;;6.25;;
40729;SDS011;26418;50.070;8.436;2024-02-21T01:16:51;13.63;;;6.70;;
40729;SDS011;26418;50.070;8.436;2024-02-21T01:19:16;16.23;;;6.32;;
40729;SDS011;26418;50.070;8.436;2024-02-21T01:21:48;16.15;;;6.57;;
40729;SDS011;26418;50.070;8.436;2024-02-21T01:26:40;12.55;;;5.13;;
40729;SDS011;26418;50.070;8.436;2024-02-21T01:29:08;17.63;;;5.78;;
40729;SDS011;26418;50.070;8.436;2024-02-21T01:31:34;12.90;;;5.50;;
40729;SDS011;26418;50.070;8.436;2024-02-21T01:33:59;13.00;;;6.38;;
40729;SDS011;26418;50.070;8.436;2024-02-21T01:36:25;19.02;;;6.63;;
40729;SDS011;26418;50.070;8.436;2024-02-21T01:38:50;12.27;;;5.72;;
40729;SDS011;26418;50.070;8.436;2024-02-21T01:41:19;16.63;;;6.40;;
40729;SDS011;26418;50.070;8.436;2024-02-21T01:43:44;15.20;;;5.57;;
40729;SDS011;26418;50.070;8.436;2024-02-21T01:46:10;12.38;;;4.70;;
40729;SDS011;26418;50.070;8.436;2024-02-21T01:48:36;10.07;;;4.93;;
40729;SDS011;26418;50.070;8.436;2024-02-21T01:51:02;10.70;;;4.70;;
40729;SDS011;26418;50.070;8.436;2024-02-21T01:53:30;8.77;;;5.07;;
40729;SDS011;26418;50.070;8.436;2024-02-21T01:56:03;10.43;;;5.13;;
40729;SDS011;26418;50.070;8.436;2024-02-21T01:58:34;19.42;;;6.13;;
40729;SDS011;26418;50.070;8.436;2024-02-21T02:01:05;11.32;;;6.03;;
40729;SDS011;26418;50.070;8.436;2024-02-21T02:03:31;11.32;;;5.78;;
40729;SDS011;26418;50.070;8.436;2024-02-21T02:05:57;13.38;;;5.93;;
40729;SDS011;26418;50.070;8.436;2024-02-21T02:08:23;16.40;;;5.35;;
40729;SDS011;26418;50.070;8.436;2024-02-21T02:10:49;18.33;;;5.85;;
40729;SDS011;26418;50.070;8.436;2024-02-21T02:13:14;18.20;;;5.97;;
40729;SDS011;26418;50.070;8.436;2024-02-21T02:15:41;14.20;;;4.95;;
40729;SDS011;26418;50.070;8.436;2024-02-21T02:18:08;18.25;;;4.82;;
40729;SDS011;26418;50.070;8.436;2024-02-21T02:20:35;12.52;;;5.22;;
40729;SDS011;26418;50.070;8.436;2024-02-21T02:23:11;8.98;;;4.10;;
40729;SDS011;26418;50.070;8.436;2024-02-21T02:25:56;10.57;;;3.88;;
40729;SDS011;26418;50.070;8.436;2024-02-21T02:28:25;10.77;;;4.38;;
40729;SDS011;26418;50.070;8.436;2024-02-21T02:30:50;16.63;;;5.88;;
40729;SDS011;26418;50.070;8.436;2024-02-21T02:33:19;17.33;;;6.43;;
40729;SDS011;26418;50.070;8.436;2024-02-21T02:35:44;12.90;;;5.75;;
40729;SDS011;26418;50.070;8.436;2024-02-21T02:38:10;10.65;;;5.18;;
40729;SDS011;26418;50.070;8.436;2024-02-21T02:40:40;9.27;;;4.65;;
40729;SDS011;26418;50.070;8.436;2024-02-21T02:43:06;10.20;;;4.32;;
40729;SDS011;26418;50.070;8.436;2024-02-21T02:45:32;9.10;;;3.95;;
40729;SDS011;26418;50.070;8.436;2024-02-21T02:48:01;12.43;;;4.40;;
40729;SDS011;26418;50.070;8.436;2024-02-21T02:50:27;7.85;;;4.25;;
40729;SDS011;26418;50.070;8.436;2024-02-21T02:52:53;7.55;;;4.20;;
40729;SDS011;26418;50.070;8.436;2024-02-21T02:55:20;12.25;;;5.13;;
40729;SDS011;26418;50.070;8.436;2024-02-21T02:57:45;11.90;;;5.75;;
40729;SDS011;26418;50.070;8.436;2024-02-21T03:00:12;10.02;;;4.80;;
40729;SDS011;26418;50.070;8.436;2024-02-21T03:02:39;13.73;;;5.53;;
40729;SDS011;26418;50.070;8.436;2024-02-21T03:05:12;13.45;;;5.13;;
40729;SDS011;26418;50.070;8.436;2024-02-21T03:07:39;16.15;;;6.55;;
40729;SDS011;26418;50.070;8.436;2024-02-21T03:10:08;14.77;;;5.40;;
40729;SDS011;26418;50.070;8.436;2024-02-21T03:12:35;16.25;;;5.95;;
40729;SDS011;26418;50.070;8.436;2024-02-21T03:15:00;14.18;;;4.93;;
40729;SDS011;26418;50.070;8.436;2024-02-21T03:17:26;16.60;;;5.57;;
40729;SDS011;26418;50.070;8.436;2024-02-21T03:19:53;16.95;;;5.53;;
40729;SDS011;26418;50.070;8.436;2024-02-21T03:22:18;13.68;;;5.75;;
40729;SDS011;26418;50.070;8.436;2024-02-21T03:24:44;13.52;;;5.28;;
40729;SDS011;26418;50.070;8.436;2024-02-21T03:27:10;12.18;;;5.18;;
40729;SDS011;26418;50.070;8.436;2024-02-21T03:29:35;21.10;;;5.63;;
40729;SDS011;26418;50.070;8.436;2024-02-21T03:32:01;13.23;;;4.63;;
40729;SDS011;26418;50.070;8.436;2024-02-21T03:34:27;13.43;;;5.45;;
40729;SDS011;26418;50.070;8.436;2024-02-21T03:36:52;15.38;;;5.18;;
40729;SDS011;26418;50.070;8.436;2024-02-21T03:39:24;12.48;;;5.35;;
40729;SDS011;26418;50.070;8.436;2024-02-21T03:41:49;14.70;;;5.57;;
40729;SDS011;26418;50.070;8.436;2024-02-21T03:44:18;13.95;;;5.82;;
40729;SDS011;26418;50.070;8.436;2024-02-21T03:46:43;12.95;;;5.55;;
40729;SDS011;26418;50.070;8.436;2024-02-21T03:49:09;14.40;;;5.40;;
40729;SDS011;26418;50.070;8.436;2024-02-21T03:51:37;16.67;;;5.68;;
40729;SDS011;26418;50.070;8.436;2024-02-21T03:54:12;14.93;;;6.47;;
40729;SDS011;26418;50.070;8.436;2024-02-21T03:56:38;14.45;;;6.25;;
40729;SDS011;26418;50.070;8.436;2024-02-21T03:59:06;12.80;;;5.25;;
40729;SDS011;26418;50.070;8.436;2024-02-21T04:01:33;16.27;;;7.13;;
40729;SDS011;26418;50.070;8.436;2024-02-21T04:04:04;20.38;;;7.03;;
40729;SDS011;26418;50.070;8.436;2024-02-21T04:06:32;18.70;;;7.10;;
40729;SDS011;26418;50.070;8.436;2024-02-21T04:08:58;16.65;;;6.72;;
40729;SDS011;26418;50.070;8.436;2024-02-21T04:11:23;13.65;;;6.10;;
40729;SDS011;26418;50.070;8.436;2024-02-21T04:13:49;11.05;;;5.90;;
40729;SDS011;26418;50.070;8.436;2024-02-21T04:16:16;12.95;;;6.70;;
40729;SDS011;26418;50.070;8.436;2024-02-21T04:18:43;11.35;;;6.03;;
40729;SDS011;26418;50.070;8.436;2024-02-21T04:21:09;19.13;;;6.97;;
40729;SDS011;26418;50.070;8.436;2024-02-21T04:23:35;21.55;;;6.35;;
40729;SDS011;26418;50.070;8.436;2024-02-21T04:26:00;16.77;;;5.80;;
40729;SDS011;26418;50.070;8.436;2024-02-21T04:28:32;13.70;;;5.95;;
40729;SDS011;26418;50.070;8.436;2024-02-21T04:31:01;17.13;;;7.30;;
40729;SDS011;26418;50.070;8.436;2024-02-21T04:33:26;18.38;;;7.88;;
40729;SDS011;26418;50.070;8.436;2024-02-21T04:35:55;21.33;;;8.23;;
40729;SDS011;26418;50.070;8.436;2024-02-21T04:38:20;18.23;;;7.60;;
40729;SDS011;26418;50.070;8.436;2024-02-21T04:40:46;13.95;;;7.22;;
40729;SDS011;26418;50.070;8.436;2024-02-21T04:43:12;15.70;;;7.80;;
40729;SDS011;26418;50.070;8.436;2024-02-21T04:45:37;22.13;;;8.80;;
40729;SDS011;26418;50.070;8.436;2024-02-21T04:48:09;21.27;;;8.20;;
40729;SDS011;26418;50.070;8.436;2024-02-21T04:50:40;15.77;;;8.20;;
40729;SDS011;26418;50.070;8.436;2024-02-21T04:53:06;20.95;;;7.43;;
40729;SDS011;26418;50.070;8.436;2024-02-21T04:55:41;14.98;;;7.03;;
40729;SDS011;26418;50.070;8.436;2024-02-21T04:58:07;22.45;;;7.38;;
40729;SDS011;26418;50.070;8.436;2024-02-21T05:00:35;14.48;;;6.10;;
40729;SDS011;26418;50.070;8.436;2024-02-21T05:03:01;16.52;;;6.85;;
40729;SDS011;26418;50.070;8.436;2024-02-21T05:05:30;15.15;;;5.75;;
40729;SDS011;26418;50.070;8.436;2024-02-21T05:07:55;10.90;;;5.72;;
40729;SDS011;26418;50.070;8.436;2024-02-21T05:10:21;17.23;;;6.75;;
40729;SDS011;26418;50.070;8.436;2024-02-21T05:12:46;23.27;;;6.97;;
40729;SDS011;26418;50.070;8.436;2024-02-21T05:15:12;12.60;;;6.65;;
40729;SDS011;26418;50.070;8.436;2024-02-21T05:17:44;13.98;;;6.65;;
40729;SDS011;26418;50.070;8.436;2024-02-21T05:20:12;17.52;;;6.50;;
40729;SDS011;26418;50.070;8.436;2024-02-21T05:22:38;17.63;;;6.15;;
40729;SDS011;26418;50.070;8.436;2024-02-21T05:25:03;10.50;;;6.22;;
40729;SDS011;26418;50.070;8.436;2024-02-21T05:27:35;13.07;;;6.43;;
40729;SDS011;26418;50.070;8.436;2024-02-21T05:30:02;17.40;;;7.45;;
40729;SDS011;26418;50.070;8.436;2024-02-21T05:32:28;14.07;;;6.70;;
40729;SDS011;26418;50.070;8.436;2024-02-21T05:34:54;12.52;;;6.47;;
40729;SDS011;26418;50.070;8.436;2024-02-21T05:37:23;14.00;;;6.55;;
40729;SDS011;26418;50.070;8.436;2024-02-21T05:39:49;16.75;;;6.97;;
40729;SDS011;26418;50.070;8.436;2024-02-21T05:42:14;17.70;;;6.65;;
40729;SDS011;26418;50.070;8.436;2024-02-21T05:44:43;13.30;;;6.00;;
40729;SDS011;26418;50.070;8.436;2024-02-21T05:47:14;14.18;;;6.13;;
40729;SDS011;26418;50.070;8.436;2024-02-21T05:49:40;19.30;;;6.43;;
40729;SDS011;26418;50.070;8.436;2024-02-21T05:52:09;16.85;;;7.53;;
40729;SDS011;26418;50.070;8.436;2024-02-21T05:54:37;14.98;;;7.13;;
40729;SDS011;26418;50.070;8.436;2024-02-21T05:57:04;14.50;;;6.78;;
40729;SDS011;26418;50.070;8.436;2024-02-21T05:59:33;16.63;;;7.38;;
40729;SDS011;26418;50.070;8.436;2024-02-21T06:01:58;19.52;;;7.32;;
40729;SDS011;26418;50.070;8.436;2024-02-21T06:04:24;19.33;;;7.20;;
40729;SDS011;26418;50.070;8.436;2024-02-21T06:06:50;23.15;;;7.53;;
40729;SDS011;26418;50.070;8.436;2024-02-21T06:09:16;13.93;;;6.43;;
40729;SDS011;26418;50.070;8.436;2024-02-21T06:11:41;14.30;;;6.43;;
40729;SDS011;26418;50.070;8.436;2024-02-21T06:14:10;15.77;;;7.07;;
40729;SDS011;26418;50.070;8.436;2024-02-21T06:16:36;14.93;;;7.07;;
40729;SDS011;26418;50.070;8.436;2024-02-21T06:19:01;14.20;;;7.45;;
40729;SDS011;26418;50.070;8.436;2024-02-21T06:21:31;13.70;;;7.40;;
40729;SDS011;26418;50.070;8.436;2024-02-21T06:23:56;12.90;;;6.40;;
40729;SDS011;26418;50.070;8.436;2024-02-21T06:26:22;13.20;;;6.40;;
40729;SDS011;26418;50.070;8.436;2024-02-21T06:28:47;16.63;;;6.65;;
40729;SDS011;26418;50.070;8.436;2024-02-21T06:31:16;15.98;;;7.03;;
40729;SDS011;26418;50.070;8.436;2024-02-21T06:33:41;18.80;;;7.20;;
40729;SDS011;26418;50.070;8.436;2024-02-21T06:36:10;14.68;;;6.60;;
40729;SDS011;26418;50.070;8.436;2024-02-21T06:38:35;18.23;;;7.07;;
40729;SDS011;26418;50.070;8.436;2024-02-21T06:41:01;14.68;;;6.90;;
40729;SDS011;26418;50.070;8.436;2024-02-21T06:43:27;19.88;;;7.13;;
40729;SDS011;26418;50.070;8.436;2024-02-21T06:45:54;16.30;;;6.82;;
40729;SDS011;26418;50.070;8.436;2024-02-21T06:48:20;15.15;;;6.90;;
40729;SDS011;26418;50.070;8.436;2024-02-21T06:50:49;14.40;;;6.93;;
40729;SDS011;26418;50.070;8.436;2024-02-21T06:53:14;18.65;;;7.32;;
40729;SDS011;26418;50.070;8.436;2024-02-21T06:55:40;12.88;;;7.65;;
40729;SDS011;26418;50.070;8.436;2024-02-21T06:58:05;16.95;;;7.97;;
40729;SDS011;26418;50.070;8.436;2024-02-21T07:00:33;13.25;;;7.15;;
40729;SDS011;26418;50.070;8.436;2024-02-21T07:02:59;14.10;;;7.43;;
40729;SDS011;26418;50.070;8.436;2024-02-21T07:05:24;16.08;;;7.82;;
40729;SDS011;26418;50.070;8.436;2024-02-21T07:07:50;18.20;;;7.57;;
40729;SDS011;26418;50.070;8.436;2024-02-21T07:10:15;17.38;;;8.73;;
40729;SDS011;26418;50.070;8.436;2024-02-21T07:12:44;15.00;;;7.57;;
40729;SDS011;26418;50.070;8.436;2024-02-21T07:15:10;15.32;;;7.78;;
40729;SDS011;26418;50.070;8.436;2024-02-21T07:17:35;18.65;;;8.40;;
40729;SDS011;26418;50.070;8.436;2024-02-21T07:20:01;17.38;;;8.50;;
40729;SDS011;26418;50.070;8.436;2024-02-21T07:22:26;17.05;;;8.98;;
40729;SDS011;26418;50.070;8.436;2024-02-21T07:24:52;21.73;;;9.85;;
40729;SDS011;26418;50.070;8.436;2024-02-21T07:27:17;17.73;;;9.80;;
40729;SDS011;26418;50.070;8.436;2024-02-21T07:29:46;19.95;;;10.25;;
40729;SDS011;26418;50.070;8.436;2024-02-21T07:32:13;20.35;;;9.20;;
40729;SDS011;26418;50.070;8.436;2024-02-21T07:34:39;22.27;;;10.43;;
40729;SDS011;26418;50.070;8.436;2024-02-21T07:37:07;20.70;;;11.15;;
40729;SDS011;26418;50.070;8.436;2024-02-21T07:39:35;25.88;;;11.48;;
40729;SDS011;26418;50.070;8.436;2024-02-21T07:42:08;20.13;;;9.80;;
40729;SDS011;26418;50.070;8.436;2024-02-21T07:44:33;21.70;;;9.73;;
40729;SDS011;26418;50.070;8.436;2024-02-21T07:46:59;20.55;;;10.85;;
40729;SDS011;26418;50.070;8.436;2024-02-21T07:49:25;25.13;;;10.90;;
40729;SDS011;26418;50.070;8.436;2024-02-21T07:51:50;27.15;;;11.15;;
40729;SDS011;26418;50.070;8.436;2024-02-21T07:54:23;18.45;;;10.07;;
40729;SDS011;26418;50.070;8.436;2024-02-21T07:56:48;20.17;;;8.13;;
40729;SDS011;26418;50.070;8.436;2024-02-21T07:59:14;17.48;;;7.50;;
40729;SDS011;26418;50.070;8.436;2024-02-21T08:01:39;16.25;;;9.68;;
40729;SDS011;26418;50.070;8.436;2024-02-21T08:04:05;17.63;;;9.38;;
40729;SDS011;26418;50.070;8.436;2024-02-21T08:06:31;18.83;;;9.23;;
40729;SDS011;26418;50.070;8.436;2024-02-21T08:08:56;24.02;;;9.80;;
40729;SDS011;26418;50.070;8.436;2024-02-21T08:11:22;24.63;;;9.70;;
40729;SDS011;26418;50.070;8.436;2024-02-21T08:13:48;14.50;;;8.48;;
40729;SDS011;26418;50.070;8.436;2024-02-21T08:16:16;22.40;;;9.20;;
40729;SDS011;26418;50.070;8.436;2024-02-21T08:18:43;17.98;;;8.25;;
40729;SDS011;26418;50.070;8.436;2024-02-21T08:21:09;21.58;;;10.10;;
40729;SDS011;26418;50.070;8.436;2024-02-21T08:23:35;19.80;;;11.57;;
40729;SDS011;26418;50.070;8.436;2024-02-21T08:26:02;15.00;;;9.20;;
40729;SDS011;26418;50.070;8.436;2024-02-21T08:28:29;20.38;;;10.35;;
40729;SDS011;26418;50.070;8.436;2024-02-21T08:30:54;17.88;;;8.88;;
40729;SDS011;26418;50.070;8.436;2024-02-21T08:33:20;24.33;;;9.93;;
40729;SDS011;26418;50.070;8.436;2024-02-21T08:35:49;21.30;;;9.13;;
40729;SDS011;26418;50.070;8.436;2024-02-21T08:38:15;18.00;;;9.65;;
40729;SDS011;26418;50.070;8.436;2024-02-21T08:40:44;12.52;;;6.75;;
40729;SDS011;26418;50.070;8.436;2024-02-21T08:43:09;19.33;;;7.25;;
40729;SDS011;26418;50.070;8.436;2024-02-21T08:45:35;13.90;;;6.75;;
40729;SDS011;26418;50.070;8.436;2024-02-21T08:48:00;13.93;;;6.05;;
40729;SDS011;26418;50.070;8.436;2024-02-21T08:50:26;15.00;;;5.63;;
40729;SDS011;26418;50.070;8.436;2024-02-21T08:52:52;35.17;;;7.18;;
40729;SDS011;26418;50.070;8.436;2024-02-21T08:55:21;19.13;;;5.78;;
40729;SDS011;26418;50.070;8.436;2024-02-21T08:57:47;14.25;;;5.00;;
40729;SDS011;26418;50.070;8.436;2024-02-21T09:00:13;10.07;;;4.72;;
40729;SDS011;26418;50.070;8.436;2024-02-21T09:02:40;10.00;;;4.63;;
40729;SDS011;26418;50.070;8.436;2024-02-21T09:05:08;11.85;;;4.70;;
40729;SDS011;26418;50.070;8.436;2024-02-21T09:07:33;17.73;;;4.65;;
40729;SDS011;26418;50.070;8.436;2024-02-21T09:09:59;12.30;;;3.65;;
40729;SDS011;26418;50.070;8.436;2024-02-21T09:12:25;13.60;;;4.40;;
40729;SDS011;26418;50.070;8.436;2024-02-21T09:14:51;14.90;;;4.18;;
40729;SDS011;26418;50.070;8.436;2024-02-21T09:17:20;15.20;;;6.03;;
40729;SDS011;26418;50.070;8.436;2024-02-21T09:19:51;9.32;;;4.13;;
40729;SDS011;26418;50.070;8.436;2024-02-21T09:22:17;10.57;;;3.50;;
40729;SDS011;26418;50.070;8.436;2024-02-21T09:24:43;14.88;;;4.72;;
40729;SDS011;26418;50.070;8.436;2024-02-21T09:27:08;13.18;;;4.63;;
40729;SDS011;26418;50.070;8.436;2024-02-21T09:29:37;15.88;;;5.22;;
40729;SDS011;26418;50.070;8.436;2024-02-21T09:32:11;9.65;;;4.55;;
40729;SDS011;26418;50.070;8.436;2024-02-21T09:34:37;10.55;;;4.90;;
40729;SDS011;26418;50.070;8.436;2024-02-21T09:40:25;8.75;;;3.85;;
40729;SDS011;26418;50.070;8.436;2024-02-21T09:42:55;7.90;;;4.32;;
40729;SDS011;26418;50.070;8.436;2024-02-21T09:45:32;8.85;;;4.22;;
40729;SDS011;26418;50.070;8.436;2024-02-21T09:48:08;16.30;;;4.80;;
40729;SDS011;26418;50.070;8.436;2024-02-21T09:50:38;9.57;;;3.95;;
40729;SDS011;26418;50.070;8.436;2024-02-21T09:53:12;12.63;;;4.35;;
40729;SDS011;26418;50.070;8.436;2024-02-21T09:55:41;10.68;;;4.18;;
40729;SDS011;26418;50.070;8.436;2024-02-21T09:58:11;8.82;;;3.75;;
40729;SDS011;26418;50.070;8.436;2024-02-21T10:00:38;12.48;;;4.22;;
40729;SDS011;26418;50.070;8.436;2024-02-21T10:03:03;7.20;;;3.55;;
40729;SDS011;26418;50.070;8.436;2024-02-21T10:05:36;10.85;;;3.45;;
40729;SDS011;26418;50.070;8.436;2024-02-21T10:08:02;10.35;;;3.70;;
40729;SDS011;26418;50.070;8.436;2024-02-21T10:10:29;8.88;;;3.47;;
40729;SDS011;26418;50.070;8.436;2024-02-21T10:12:55;10.32;;;3.75;;
40729;SDS011;26418;50.070;8.436;2024-02-21T10:15:21;15.85;;;4.05;;
40729;SDS011;26418;50.070;8.436;2024-02-21T10:17:48;11.35;;;3.95;;
40729;SDS011;26418;50.070;8.436;2024-02-21T10:20:13;11.45;;;4.18;;
40729;SDS011;26418;50.070;8.436;2024-02-21T10:22:40;7.22;;;3.25;;
40729;SDS011;26418;50.070;8.436;2024-02-21T10:25:09;11.25;;;3.00;;
40729;SDS011;26418;50.070;8.436;2024-02-21T10:27:38;15.30;;;4.13;;
40729;SDS011;26418;50.070;8.436;2024-02-21T10:30:12;11.00;;;4.22;;
40729;SDS011;26418;50.070;8.436;2024-02-21T10:32:55;10.77;;;3.60;;
40729;SDS011;26418;50.070;8.436;2024-02-21T10:35:36;11.93;;;3.83;;
40729;SDS011;26418;50.070;8.436;2024-02-21T10:38:01;8.27;;;2.90;;
40729;SDS011;26418;50.070;8.436;2024-02-21T10:40:29;11.82;;;3.97;;
40729;SDS011;26418;50.070;8.436;2024-02-21T10:43:01;11.88;;;3.47;;
40729;SDS011;26418;50.070;8.436;2024-02-21T10:45:29;8.20;;;3.65;;
40729;SDS011;26418;50.070;8.436;2024-02-21T10:48:22;10.20;;;3.88;;
40729;SDS011;26418;50.070;8.436;2024-02-21T10:50:57;9.25;;;3.50;;
40729;SDS011;26418;50.070;8.436;2024-02-21T10:53:44;7.22;;;3.40;;
40729;SDS011;26418;50.070;8.436;2024-02-21T10:56:21;5.78;;;3.05;;
40729;SDS011;26418;50.070;8.436;2024-02-21T10:58:52;9.15;;;3.03;;
40729;SDS011;26418;50.070;8.436;2024-02-21T11:01:18;10.73;;;3.58;;
40729;SDS011;26418;50.070;8.436;2024-02-21T11:03:45;11.85;;;3.92;;
40729;SDS011;26418;50.070;8.436;2024-02-21T11:06:12;13.20;;;3.65;;
40729;SDS011;26418;50.070;8.436;2024-02-21T11:08:40;13.35;;;3.65;;
40729;SDS011;26418;50.070;8.436;2024-02-21T11:11:06;10.25;;;2.67;;
40729;SDS011;26418;50.070;8.436;2024-02-21T11:16:09;10.15;;;2.67;;
40729;SDS011;26418;50.070;8.436;2024-02-21T11:18:39;8.13;;;3.08;;
40729;SDS011;26418;50.070;8.436;2024-02-21T11:21:04;7.75;;;3.10;;
40729;SDS011;26418;50.070;8.436;2024-02-21T11:23:34;11.57;;;3.78;;
40729;SDS011;26418;50.070;8.436;2024-02-21T11:26:18;13.07;;;3.72;;
40729;SDS011;26418;50.070;8.436;2024-02-21T11:28:44;7.72;;;3.25;;
40729;SDS011;26418;50.070;8.436;2024-02-21T11:31:16;6.47;;;3.30;;
40729;SDS011;26418;50.070;8.436;2024-02-21T11:33:42;16.63;;;4.18;;
40729;SDS011;26418;50.070;8.436;2024-02-21T11:36:11;15.85;;;3.75;;
40729;SDS011;26418;50.070;8.436;2024-02-21T11:38:49;12.48;;;3.88;;
40729;SDS011;26418;50.070;8.436;2024-02-21T11:41:19;12.23;;;3.25;;
40729;SDS011;26418;50.070;8.436;2024-02-21T11:43:50;9.73;;;3.33;;
40729;SDS011;26418;50.070;8.436;2024-02-21T11:46:16;9.02;;;2.90;;
40729;SDS011;26418;50.070;8.436;2024-02-21T11:48:45;5.10;;;2.67;;
40729;SDS011;26418;50.070;8.436;2024-02-21T11:51:21;10.30;;;2.90;;
40729;SDS011;26418;50.070;8.436;2024-02-21T11:53:50;8.57;;;3.15;;
40729;SDS011;26418;50.070;8.436;2024-02-21T11:56:17;11.02;;;3.80;;
40729;SDS011;26418;50.070;8.436;2024-02-21T11:58:44;8.85;;;2.97;;
40729;SDS011;26418;50.070;8.436;2024-02-21T12:01:10;9.02;;;3.33;;
40729;SDS011;26418;50.070;8.436;2024-02-21T12:03:39;7.53;;;2.35;;
40729;SDS011;26418;50.070;8.436;2024-02-21T12:06:06;9.23;;;3.08;;
40729;SDS011;26418;50.070;8.436;2024-02-21T12:08:45;9.48;;;2.65;;
40729;SDS011;26418;50.070;8.436;2024-02-21T12:11:18;15.90;;;3.40;;
40729;SDS011;26418;50.070;8.436;2024-02-21T12:14:01;9.65;;;3.10;;
40729;SDS011;26418;50.070;8.436;2024-02-21T12:16:38;9.88;;;3.03;;
40729;SDS011;26418;50.070;8.436;2024-02-21T12:19:06;9.73;;;3.40;;
40729;SDS011;26418;50.070;8.436;2024-02-21T12:21:33;10.10;;;3.20;;
40729;SDS011;26418;50.070;8.436;2024-02-21T12:24:14;6.15;;;2.92;;
40729;SDS011;26418;50.070;8.436;2024-02-21T12:26:49;10.55;;;2.72;;
40729;SDS011;26418;50.070;8.436;2024-02-21T12:29:15;7.68;;;2.67;;
40729;SDS011;26418;50.070;8.436;2024-02-21T12:31:41;10.88;;;3.30;;
40729;SDS011;26418;50.070;8.436;2024-02-21T12:34:06;11.85;;;3.22;;
40729;SDS011;26418;50.070;8.436;2024-02-21T12:36:35;7.03;;;2.63;;
40729;SDS011;26418;50.070;8.436;2024-02-21T12:39:07;6.13;;;2.25;;
40729;SDS011;26418;50.070;8.436;2024-02-21T12:41:33;11.35;;;3.17;;
40729;SDS011;26418;50.070;8.436;2024-02-21T12:44:12;8.38;;;3.40;;
40729;SDS011;26418;50.070;8.436;2024-02-21T12:46:38;9.82;;;3.28;;
40729;SDS011;26418;50.070;8.436;2024-02-21T12:49:05;9.15;;;3.80;;
40729;SDS011;26418;50.070;8.436;2024-02-21T12:51:35;5.07;;;2.90;;
40729;SDS011;26418;50.070;8.436;2024-02-21T12:54:04;12.45;;;4.47;;
40729;SDS011;26418;50.070;8.436;2024-02-21T12:56:29;11.25;;;3.15;;
40729;SDS011;26418;50.070;8.436;2024-02-21T12:58:56;13.50;;;3.70;;
40729;SDS011;26418;50.070;8.436;2024-02-21T13:01:22;8.13;;;2.97;;
40729;SDS011;26418;50.070;8.436;2024-02-21T13:03:48;8.48;;;2.67;;
40729;SDS011;26418;50.070;8.436;2024-02-21T13:06:14;10.20;;;3.85;;
40729;SDS011;26418;50.070;8.436;2024-02-21T13:08:39;7.75;;;3.33;;
40729;SDS011;26418;50.070;8.436;2024-02-21T13:11:06;8.68;;;2.65;;
40729;SDS011;26418;50.070;8.436;2024-02-21T13:13:32;12.57;;;3.83;;
40729;SDS011;26418;50.070;8.436;2024-02-21T13:15:58;10.27;;;3.45;;
40729;SDS011;26418;50.070;8.436;2024-02-21T13:18:24;8.60;;;3.90;;
40729;SDS011;26418;50.070;8.436;2024-02-21T13:23:49;10.35;;;3.00;;
40729;SDS011;26418;50.070;8.436;2024-02-21T13:26:14;11.05;;;3.55;;
40729;SDS011;26418;50.070;8.436;2024-02-21T13:28:40;23.92;;;8.35;;
40729;SDS011;26418;50.070;8.436;2024-02-21T13:31:06;26.02;;;9.27;;
40729;SDS011;26418;50.070;8.436;2024-02-21T13:33:31;16.05;;;6.95;;
40729;SDS011;26418;50.070;8.436;2024-02-21T13:35:57;19.17;;;6.95;;
40729;SDS011;26418;50.070;8.436;2024-02-21T13:38:26;15.98;;;6.78;;
40729;SDS011;26418;50.070;8.436;2024-02-21T13:40:52;14.82;;;6.10;;
40729;SDS011;26418;50.070;8.436;2024-02-21T13:43:18;19.73;;;7.20;;
40729;SDS011;26418;50.070;8.436;2024-02-21T13:45:54;16.77;;;5.78;;
40729;SDS011;26418;50.070;8.436;2024-02-21T13:48:34;15.27;;;3.78;;
40729;SDS011;26418;50.070;8.436;2024-02-21T13:51:00;9.77;;;3.13;;
40729;SDS011;26418;50.070;8.436;2024-02-21T13:53:27;10.40;;;4.25;;
40729;SDS011;26418;50.070;8.436;2024-02-21T13:55:53;10.02;;;3.10;;
40729;SDS011;26418;50.070;8.436;2024-02-21T13:58:18;9.68;;;3.60;;
40729;SDS011;26418;50.070;8.436;2024-02-21T14:00:45;10.50;;;4.88;;
40729;SDS011;26418;50.070;8.436;2024-02-21T14:03:10;12.55;;;4.85;;
40729;SDS011;26418;50.070;8.436;2024-02-21T14:05:42;7.15;;;3.38;;
40729;SDS011;26418;50.070;8.436;2024-02-21T14:08:07;10.38;;;4.22;;
40729;SDS011;26418;50.070;8.436;2024-02-21T14:10:33;8.13;;;2.92;;
40729;SDS011;26418;50.070;8.436;2024-02-21T14:12:59;13.65;;;2.85;;
40729;SDS011;26418;50.070;8.436;2024-02-21T14:15:25;7.55;;;2.72;;
40729;SDS011;26418;50.070;8.436;2024-02-21T14:17:57;13.30;;;3.22;;
40729;SDS011;26418;50.070;8.436;2024-02-21T14:20:22;8.85;;;3.85;;
40729;SDS011;26418;50.070;8.436;2024-02-21T14:22:48;4.35;;;2.33;;
40729;SDS011;26418;50.070;8.436;2024-02-21T14:25:14;7.18;;;2.33;;
40729;SDS011;26418;50.070;8.436;2024-02-21T14:27:41;6.13;;;3.00;;
40729;SDS011;26418;50.070;8.436;2024-02-21T14:30:07;12.90;;;2.75;;
40729;SDS011;26418;50.070;8.436;2024-02-21T14:32:40;7.75;;;2.15;;
40729;SDS011;26418;50.070;8.436;2024-02-21T14:35:08;7.63;;;2.22;;
40729;SDS011;26418;50.070;8.436;2024-02-21T14:37:34;7.00;;;2.28;;
40729;SDS011;26418;50.070;8.436;2024-02-21T14:39:59;5.90;;;2.08;;
40729;SDS011;26418;50.070;8.436;2024-02-21T14:42:31;9.77;;;2.35;;
40729;SDS011;26418;50.070;8.436;2024-02-21T14:44:57;9.70;;;3.08;;
40729;SDS011;26418;50.070;8.436;2024-02-21T14:47:29;4.80;;;2.00;;
40729;SDS011;26418;50.070;8.436;2024-02-21T14:49:58;8.73;;;2.03;;